createdAt,value
2023-03-13T00:00:32.602Z,10.95
2023-03-13T00:03:00.298Z,9.05
2023-03-13T00:05:26.730Z,9.63
2023-03-13T00:07:53.139Z,8.52
2023-03-13T00:10:19.567Z,11.07
2023-03-13T00:12:45.868Z,9.45
2023-03-13T00:15:12.472Z,9.07
2023-03-13T00:17:38.941Z,10.00
2023-03-13T00:20:05.607Z,9.85
2023-03-13T00:22:32.024Z,8.25
2023-03-13T00:24:58.755Z,9.27
2023-03-13T00:27:25.428Z,9.18
2023-03-13T00:29:52.163Z,8.05
2023-03-13T00:32:18.682Z,9.50
2023-03-13T00:34:45.016Z,8.55
2023-03-13T00:37:11.821Z,8.55
2023-03-13T00:39:38.348Z,8.65
2023-03-13T00:42:05.065Z,8.65
2023-03-13T00:44:31.724Z,8.80
2023-03-13T00:46:58.342Z,8.57
2023-03-13T00:49:24.995Z,7.95
2023-03-13T00:51:51.399Z,9.15
2023-03-13T00:54:17.793Z,7.18
2023-03-13T00:56:44.317Z,9.23
2023-03-13T00:59:10.703Z,7.80
2023-03-13T01:01:37.095Z,7.72
2023-03-13T01:04:03.658Z,7.13
2023-03-13T01:06:30.010Z,8.68
2023-03-13T01:08:56.674Z,7.93
2023-03-13T01:11:23.012Z,7.68
2023-03-13T01:13:49.490Z,8.95
2023-03-13T01:16:16.133Z,7.85
2023-03-13T01:18:42.574Z,7.57
2023-03-13T01:21:09.155Z,7.35
2023-03-13T01:23:35.534Z,7.63
2023-03-13T01:26:01.932Z,10.05
2023-03-13T01:28:28.364Z,8.30
2023-03-13T01:30:54.681Z,7.85
2023-03-13T01:33:21.081Z,8.43
2023-03-13T01:35:47.619Z,8.07
2023-03-13T01:38:13.972Z,7.25
2023-03-13T01:40:40.459Z,9.18
2023-03-13T01:43:09.857Z,8.43
2023-03-13T01:45:36.222Z,8.95
2023-03-13T01:48:02.822Z,8.05
2023-03-13T01:50:29.378Z,6.22
2023-03-13T01:52:55.801Z,7.75
2023-03-13T01:55:22.158Z,7.85
2023-03-13T01:57:48.507Z,7.40
2023-03-13T02:00:14.860Z,6.57
2023-03-13T02:02:41.293Z,6.43
2023-03-13T02:05:08.197Z,7.07
2023-03-13T02:07:34.517Z,6.82
2023-03-13T02:10:01.222Z,6.70
2023-03-13T02:12:28.511Z,7.47
2023-03-13T02:14:55.406Z,7.20
2023-03-13T02:17:21.777Z,6.80
2023-03-13T02:19:48.547Z,7.70
2023-03-13T02:22:14.914Z,7.30
2023-03-13T02:24:41.249Z,7.05
2023-03-13T02:27:07.790Z,6.30
2023-03-13T02:29:34.175Z,5.97
2023-03-13T02:32:00.887Z,6.60
2023-03-13T02:34:27.251Z,7.22
2023-03-13T02:36:53.610Z,8.15
2023-03-13T02:39:19.999Z,6.60
2023-03-13T02:41:46.349Z,6.15
2023-03-13T02:44:12.991Z,6.28
2023-03-13T02:46:39.744Z,6.18
2023-03-13T02:49:06.102Z,7.28
2023-03-13T02:51:32.510Z,8.55
2023-03-13T02:53:59.279Z,5.43
2023-03-13T02:56:25.668Z,7.70
2023-03-13T02:58:52.215Z,7.05
2023-03-13T03:01:18.817Z,6.78
2023-03-13T03:03:45.230Z,6.65
2023-03-13T03:06:11.571Z,6.85
2023-03-13T03:08:37.954Z,6.75
2023-03-13T03:11:04.384Z,6.50
2023-03-13T03:13:30.812Z,5.70
2023-03-13T03:15:57.631Z,5.90
2023-03-13T03:18:24.017Z,6.35
2023-03-13T03:20:50.548Z,5.85
2023-03-13T03:23:17.149Z,6.45
2023-03-13T03:25:43.624Z,6.50
2023-03-13T03:28:10.480Z,5.82
2023-03-13T03:30:36.864Z,6.65
2023-03-13T03:33:03.263Z,5.70
2023-03-13T03:35:30.074Z,6.35
2023-03-13T03:37:56.692Z,7.65
2023-03-13T03:40:23.037Z,6.85
2023-03-13T03:42:49.618Z,7.05
2023-03-13T03:45:15.980Z,7.38
2023-03-13T03:47:42.585Z,7.25
2023-03-13T03:50:09.342Z,6.22
2023-03-13T03:52:35.729Z,5.20
2023-03-13T03:55:02.101Z,7.13
2023-03-13T03:57:28.543Z,5.45
2023-03-13T03:59:54.905Z,5.25
2023-03-13T04:02:21.498Z,6.28
2023-03-13T04:04:48.022Z,5.85
2023-03-13T04:07:14.658Z,7.50
2023-03-13T04:09:41.549Z,6.78
2023-03-13T04:12:07.932Z,5.07
2023-03-13T04:14:34.463Z,6.53
2023-03-13T04:17:00.836Z,5.93
2023-03-13T04:19:27.286Z,6.40
2023-03-13T04:21:53.588Z,6.18
2023-03-13T04:24:19.904Z,5.25
2023-03-13T04:26:46.301Z,5.22
2023-03-13T04:29:12.677Z,6.50
2023-03-13T04:31:39.233Z,6.97
2023-03-13T04:34:05.806Z,6.50
2023-03-13T04:36:32.347Z,6.18
2023-03-13T04:38:58.793Z,5.35
2023-03-13T04:41:25.194Z,7.13
2023-03-13T04:43:51.662Z,7.30
2023-03-13T04:46:18.225Z,5.47
2023-03-13T04:48:44.693Z,6.32
2023-03-13T04:51:11.060Z,6.57
2023-03-13T04:53:37.535Z,5.63
2023-03-13T04:56:03.945Z,7.18
2023-03-13T04:58:30.408Z,5.88
2023-03-13T05:00:56.726Z,5.40
2023-03-13T05:03:23.523Z,5.63
2023-03-13T05:05:49.893Z,6.57
2023-03-13T05:08:16.285Z,5.75
2023-03-13T05:10:42.660Z,5.43
2023-03-13T05:13:09.569Z,6.18
2023-03-13T05:15:36.002Z,4.55
2023-03-13T05:18:02.372Z,6.80
2023-03-13T05:20:29.049Z,5.65
2023-03-13T05:22:55.305Z,5.72
2023-03-13T05:25:22.062Z,7.75
2023-03-13T05:27:48.764Z,7.05
2023-03-13T05:30:15.144Z,6.15
2023-03-13T05:32:41.589Z,6.07
2023-03-13T05:35:08.064Z,5.35
2023-03-13T05:37:34.527Z,7.03
2023-03-13T05:40:01.042Z,5.30
2023-03-13T05:42:27.618Z,5.65
2023-03-13T05:44:53.957Z,5.38
2023-03-13T05:47:20.290Z,5.72
2023-03-13T05:49:46.723Z,5.13
2023-03-13T05:52:13.071Z,5.65
2023-03-13T05:54:39.601Z,6.50
2023-03-13T05:57:06.453Z,6.18
2023-03-13T05:59:32.802Z,6.28
2023-03-13T06:01:59.426Z,6.07
2023-03-13T06:04:25.980Z,5.20
2023-03-13T06:06:52.638Z,6.35
2023-03-13T06:09:19.226Z,7.57
2023-03-13T06:11:45.795Z,5.70
2023-03-13T06:14:12.395Z,5.47
2023-03-13T06:16:38.915Z,6.85
2023-03-13T06:19:05.300Z,5.65
2023-03-13T06:21:31.626Z,4.93
2023-03-13T06:23:58.163Z,5.25
2023-03-13T06:26:25.219Z,6.53
2023-03-13T06:28:51.536Z,8.38
2023-03-13T06:31:18.040Z,9.05
2023-03-13T06:33:44.510Z,7.75
2023-03-13T06:36:10.884Z,7.18
2023-03-13T06:38:37.935Z,4.72
2023-03-13T06:41:04.424Z,5.68
2023-03-13T06:43:30.918Z,6.07
2023-03-13T06:45:57.290Z,6.43
2023-03-13T06:48:23.688Z,5.13
2023-03-13T06:50:50.608Z,5.57
2023-03-13T06:53:17.034Z,7.13
2023-03-13T06:55:43.533Z,7.13
2023-03-13T06:58:18.844Z,5.50
2023-03-13T07:00:55.436Z,6.05
2023-03-13T07:03:21.888Z,6.57
2023-03-13T07:05:48.800Z,6.07
2023-03-13T07:08:15.216Z,9.85
2023-03-13T07:10:41.612Z,6.05
2023-03-13T07:13:08.463Z,5.95
2023-03-13T07:15:34.959Z,8.07
2023-03-13T07:18:01.734Z,8.73
2023-03-13T07:20:28.107Z,6.07
2023-03-13T07:22:54.702Z,7.25
2023-03-13T07:25:21.055Z,6.57
2023-03-13T07:27:47.971Z,6.10
2023-03-13T07:30:14.752Z,7.30
2023-03-13T07:32:41.182Z,8.63
2023-03-13T07:35:07.785Z,10.68
2023-03-13T07:37:34.098Z,11.68
2023-03-13T07:40:00.538Z,13.30
2023-03-13T07:42:27.165Z,13.75
2023-03-13T07:44:53.885Z,16.73
2023-03-13T07:47:20.299Z,17.33
2023-03-13T07:49:46.661Z,16.77
2023-03-13T07:52:13.058Z,22.13
2023-03-13T07:54:39.445Z,19.25
2023-03-13T07:57:05.829Z,18.88
2023-03-13T07:59:32.278Z,24.55
2023-03-13T08:01:59.182Z,23.20
2023-03-13T08:04:25.643Z,19.63
2023-03-13T08:06:52.017Z,25.05
2023-03-13T08:09:18.402Z,25.27
2023-03-13T08:11:45.341Z,24.35
2023-03-13T08:14:11.700Z,24.75
2023-03-13T08:16:38.101Z,23.02
2023-03-13T08:19:04.578Z,23.70
2023-03-13T08:21:31.116Z,27.13
2023-03-13T08:23:57.497Z,31.23
2023-03-13T08:26:23.855Z,27.25
2023-03-13T08:28:50.233Z,35.63
2023-03-13T08:31:16.766Z,37.75
2023-03-13T08:33:43.280Z,38.35
2023-03-13T08:36:09.602Z,37.95
2023-03-13T08:38:36.051Z,37.83
2023-03-13T08:41:02.513Z,41.00
2023-03-13T08:43:29.459Z,45.65
2023-03-13T08:45:55.906Z,38.70
2023-03-13T08:48:22.259Z,45.03
2023-03-13T08:50:48.945Z,41.67
2023-03-13T08:53:15.291Z,45.15
2023-03-13T08:55:41.996Z,43.90
2023-03-13T08:58:08.817Z,45.42
2023-03-13T09:00:35.247Z,40.65
2023-03-13T09:03:02.197Z,43.65
2023-03-13T09:05:28.629Z,46.63
2023-03-13T09:07:55.260Z,48.55
2023-03-13T09:10:21.644Z,45.83
2023-03-13T09:12:48.212Z,44.28
2023-03-13T09:15:14.792Z,46.13
2023-03-13T09:17:41.399Z,44.58
2023-03-13T09:20:08.008Z,54.08
2023-03-13T09:22:34.494Z,47.97
2023-03-13T09:25:01.032Z,48.97
2023-03-13T09:27:27.591Z,50.55
2023-03-13T09:29:53.912Z,47.83
2023-03-13T09:32:20.279Z,49.45
2023-03-13T09:34:46.649Z,47.85
2023-03-13T09:37:12.979Z,49.55
2023-03-13T09:39:39.587Z,44.63
2023-03-13T09:42:07.752Z,47.97
2023-03-13T09:44:34.307Z,47.75
2023-03-13T09:47:00.730Z,47.70
2023-03-13T09:49:27.160Z,46.70
2023-03-13T09:51:53.726Z,44.30
2023-03-13T09:54:20.239Z,48.97
2023-03-13T09:56:46.540Z,46.42
2023-03-13T09:59:12.950Z,42.45
2023-03-13T10:01:39.404Z,47.92
2023-03-13T10:04:06.049Z,50.97
2023-03-13T10:06:32.496Z,43.33
2023-03-13T10:08:59.501Z,45.08
2023-03-13T10:11:26.199Z,46.85
2023-03-13T10:13:52.877Z,43.72
2023-03-13T10:16:19.578Z,55.35
2023-03-13T10:18:46.110Z,50.38
2023-03-13T10:21:12.430Z,45.15
2023-03-13T10:23:39.122Z,43.03
2023-03-13T10:26:05.690Z,44.03
2023-03-13T10:28:31.992Z,42.63
2023-03-13T10:30:58.507Z,44.15
2023-03-13T10:33:25.429Z,41.53
2023-03-13T10:35:51.824Z,40.38
2023-03-13T10:38:18.309Z,43.50
2023-03-13T10:40:45.038Z,47.40
2023-03-13T10:43:11.470Z,43.28
2023-03-13T10:45:38.051Z,40.42
2023-03-13T10:48:04.452Z,43.75
2023-03-13T10:50:30.934Z,41.85
2023-03-13T10:52:57.412Z,37.60
2023-03-13T10:55:23.742Z,40.17
2023-03-13T10:57:50.625Z,38.80
2023-03-13T11:00:17.406Z,42.92
2023-03-13T11:02:44.136Z,39.47
2023-03-13T11:05:12.450Z,38.85
2023-03-13T11:07:40.009Z,36.40
2023-03-13T11:10:06.424Z,36.88
2023-03-13T11:12:32.939Z,38.00
2023-03-13T11:14:59.447Z,40.42
2023-03-13T11:17:25.844Z,37.95
2023-03-13T11:19:53.707Z,35.67
2023-03-13T11:22:20.108Z,40.45
2023-03-13T11:24:46.726Z,37.70
2023-03-13T11:27:13.149Z,37.20
2023-03-13T11:29:39.764Z,36.22
2023-03-13T11:32:07.884Z,34.90
2023-03-13T11:34:34.442Z,32.28
2023-03-13T11:37:00.885Z,34.85
2023-03-13T11:39:27.922Z,33.30
2023-03-13T11:41:54.328Z,33.00
2023-03-13T11:44:20.933Z,30.17
2023-03-13T11:46:47.539Z,30.30
2023-03-13T11:49:14.036Z,29.15
2023-03-13T11:51:40.640Z,32.65
2023-03-13T11:54:07.696Z,30.25
2023-03-13T11:56:34.063Z,33.03
2023-03-13T11:59:02.246Z,34.25
2023-03-13T12:01:28.803Z,31.75
2023-03-13T12:03:55.610Z,26.05
2023-03-13T12:06:28.309Z,70.80
2023-03-13T12:08:55.873Z,123.32
2023-03-13T12:11:22.268Z,97.18
2023-03-13T12:13:48.652Z,94.22
2023-03-13T12:16:15.126Z,87.13
2023-03-13T12:18:41.792Z,74.50
2023-03-13T12:21:08.649Z,70.53
2023-03-13T12:23:35.937Z,64.93
2023-03-13T12:26:02.731Z,80.00
2023-03-13T12:28:29.131Z,75.70
2023-03-13T12:30:56.062Z,75.05
2023-03-13T12:33:24.106Z,155.35
2023-03-13T12:35:51.137Z,217.45
2023-03-13T12:38:17.831Z,213.20
2023-03-13T12:40:44.619Z,201.63
2023-03-13T12:43:11.481Z,174.77
2023-03-13T12:45:38.428Z,170.13
2023-03-13T12:48:05.128Z,291.65
2023-03-13T12:50:31.881Z,271.38
2023-03-13T12:52:59.238Z,224.50
2023-03-13T12:55:26.173Z,210.68
2023-03-13T12:57:52.650Z,200.55
2023-03-13T13:00:19.474Z,177.93
2023-03-13T13:02:45.890Z,166.60
2023-03-13T13:05:12.833Z,166.70
2023-03-13T13:07:39.352Z,149.95
2023-03-13T13:10:05.757Z,140.10
2023-03-13T13:12:32.632Z,137.27
2023-03-13T13:14:59.350Z,285.35
2023-03-13T13:17:25.963Z,275.10
2023-03-13T13:19:52.373Z,254.65
2023-03-13T13:22:19.235Z,235.23
2023-03-13T13:24:45.739Z,220.98
2023-03-13T13:27:12.171Z,206.38
2023-03-13T13:29:38.964Z,200.68
2023-03-13T13:32:05.556Z,240.23
2023-03-13T13:34:31.981Z,314.42
2023-03-13T13:36:58.376Z,290.63
2023-03-13T13:39:25.080Z,265.27
2023-03-13T13:41:51.610Z,257.58
2023-03-13T13:44:17.965Z,233.95
2023-03-13T13:46:45.160Z,214.20
2023-03-13T13:49:11.677Z,224.50
2023-03-13T13:51:38.052Z,215.05
2023-03-13T13:54:04.534Z,203.93
2023-03-13T13:56:31.672Z,196.68
2023-03-13T13:58:58.642Z,193.77
2023-03-13T14:01:25.368Z,227.52
2023-03-13T14:03:51.755Z,194.05
2023-03-13T14:06:18.341Z,181.63
2023-03-13T14:08:44.801Z,166.45
2023-03-13T14:11:11.461Z,163.85
2023-03-13T14:13:38.771Z,112.57
2023-03-13T14:16:05.139Z,130.32
2023-03-13T14:18:31.485Z,118.55
2023-03-13T14:20:57.847Z,114.63
2023-03-13T14:23:24.744Z,107.80
2023-03-13T14:25:51.181Z,105.22
2023-03-13T14:28:17.896Z,96.68
2023-03-13T14:30:44.327Z,92.72
2023-03-13T14:33:10.680Z,86.38
2023-03-13T14:35:37.186Z,82.25
2023-03-13T14:38:05.118Z,76.60
2023-03-13T14:40:31.520Z,77.57
2023-03-13T14:42:58.114Z,71.88
2023-03-13T14:45:24.413Z,68.13
2023-03-13T14:47:50.777Z,65.63
2023-03-13T14:50:17.154Z,196.35
2023-03-13T14:52:43.747Z,237.43
2023-03-13T14:55:10.023Z,201.30
2023-03-13T14:57:36.720Z,203.40
2023-03-13T15:00:03.176Z,211.60
2023-03-13T15:02:29.816Z,196.13
2023-03-13T15:04:56.383Z,173.65
2023-03-13T15:07:22.886Z,181.68
2023-03-13T15:09:49.287Z,158.48
2023-03-13T15:12:16.534Z,152.60
2023-03-13T15:14:43.924Z,143.18
2023-03-13T15:17:10.276Z,136.27
2023-03-13T15:19:36.602Z,126.25
2023-03-13T15:22:02.983Z,117.55
2023-03-13T15:24:29.402Z,112.70
2023-03-13T15:26:55.689Z,111.50
2023-03-13T15:29:22.034Z,102.45
2023-03-13T15:31:48.943Z,97.65
2023-03-13T15:34:15.238Z,101.55
2023-03-13T15:36:41.871Z,240.63
2023-03-13T15:39:08.266Z,272.60
2023-03-13T15:41:34.651Z,212.48
2023-03-13T15:44:01.761Z,194.73
2023-03-13T15:46:28.325Z,187.43
2023-03-13T15:48:54.912Z,172.30
2023-03-13T15:51:21.269Z,164.85
2023-03-13T15:53:47.850Z,155.18
2023-03-13T15:56:14.223Z,152.73
2023-03-13T15:58:40.671Z,147.65
2023-03-13T16:01:07.917Z,134.00
2023-03-13T16:03:34.300Z,142.80
2023-03-13T16:06:00.852Z,137.90
2023-03-13T16:08:36.904Z,122.40
2023-03-13T16:11:03.735Z,197.70
2023-03-13T16:13:30.119Z,264.65
2023-03-13T16:15:56.747Z,257.42
2023-03-13T16:18:23.630Z,239.82
2023-03-13T16:20:49.989Z,260.65
2023-03-13T16:23:16.816Z,272.27
2023-03-13T16:25:43.654Z,280.77
2023-03-13T16:28:10.067Z,251.63
2023-03-13T16:30:36.518Z,235.32
2023-03-13T16:33:03.553Z,216.07
2023-03-13T16:35:30.083Z,309.13
2023-03-13T16:37:56.541Z,369.40
2023-03-13T16:40:23.123Z,346.98
2023-03-13T16:42:49.489Z,322.05
2023-03-13T16:45:15.931Z,296.42
2023-03-13T16:47:42.358Z,288.55
2023-03-13T16:50:09.030Z,278.73
2023-03-13T16:52:35.854Z,259.83
2023-03-13T16:55:02.517Z,266.52
2023-03-13T16:57:28.918Z,263.30
2023-03-13T16:59:55.589Z,259.23
2023-03-13T17:02:21.998Z,247.00
2023-03-13T17:04:48.451Z,242.30
2023-03-13T17:07:15.099Z,211.63
2023-03-13T17:09:41.472Z,321.73
2023-03-13T17:12:07.864Z,397.10
2023-03-13T17:14:34.172Z,404.75
2023-03-13T17:17:00.545Z,409.75
2023-03-13T17:19:26.923Z,404.77
2023-03-13T17:21:54.077Z,401.00
2023-03-13T17:24:20.361Z,390.25
2023-03-13T17:26:46.768Z,372.95
2023-03-13T17:29:13.204Z,370.77
2023-03-13T17:31:39.944Z,362.20
2023-03-13T17:34:06.470Z,347.90
2023-03-13T17:36:32.869Z,338.63
2023-03-13T17:38:59.383Z,335.08
2023-03-13T17:41:25.678Z,397.02
2023-03-13T17:43:52.252Z,484.60
2023-03-13T17:46:19.241Z,506.65
2023-03-13T17:48:45.678Z,427.05
2023-03-13T17:51:12.024Z,438.67
2023-03-13T17:53:38.761Z,421.35
2023-03-13T17:56:05.144Z,412.52
2023-03-13T17:58:31.812Z,394.77
2023-03-13T18:00:58.564Z,372.75
2023-03-13T18:03:25.188Z,338.52
2023-03-13T18:05:51.687Z,338.75
2023-03-13T18:08:18.127Z,325.05
2023-03-13T18:10:44.581Z,342.55
2023-03-13T18:13:11.068Z,400.85
2023-03-13T18:15:37.432Z,416.83
2023-03-13T18:18:03.977Z,387.45
2023-03-13T18:20:30.802Z,369.25
2023-03-13T18:22:57.601Z,344.83
2023-03-13T18:25:24.187Z,336.05
2023-03-13T18:27:50.526Z,346.48
2023-03-13T18:30:16.950Z,383.45
2023-03-13T18:32:43.451Z,546.97
2023-03-13T18:35:09.876Z,607.90
2023-03-13T18:37:36.421Z,574.42
2023-03-13T18:40:02.739Z,531.70
2023-03-13T18:42:29.126Z,513.42
2023-03-13T18:44:55.655Z,492.08
2023-03-13T18:47:22.024Z,465.88
2023-03-13T18:49:48.922Z,478.58
2023-03-13T18:52:15.437Z,487.30
2023-03-13T18:54:42.110Z,458.25
2023-03-13T18:57:08.462Z,432.02
2023-03-13T18:59:35.214Z,425.58
2023-03-13T19:02:01.598Z,399.10
2023-03-13T19:04:28.088Z,390.30
2023-03-13T19:06:54.688Z,362.85
2023-03-13T19:09:41.663Z,352.92
2023-03-13T19:12:07.756Z,339.35
2023-03-13T19:14:34.594Z,319.17
2023-03-13T19:17:01.433Z,300.15
2023-03-13T19:19:28.069Z,287.27
2023-03-13T19:21:54.802Z,272.85
2023-03-13T19:24:21.268Z,393.10
2023-03-13T19:26:47.678Z,427.88
2023-03-13T19:29:14.346Z,392.90
2023-03-13T19:31:40.717Z,364.38
2023-03-13T19:34:07.152Z,364.00
2023-03-13T19:36:35.486Z,345.08
2023-03-13T19:39:03.691Z,335.52
2023-03-13T19:41:30.107Z,310.52
2023-03-13T19:43:56.789Z,308.77
2023-03-13T19:46:23.214Z,302.02
2023-03-13T19:48:49.778Z,291.55
2023-03-13T19:51:16.649Z,289.52
2023-03-13T19:53:43.393Z,275.90
2023-03-13T19:56:09.795Z,275.48
2023-03-13T19:58:36.330Z,267.30
2023-03-13T20:01:15.059Z,273.20
2023-03-13T20:03:43.851Z,365.25
2023-03-13T20:06:10.364Z,402.20
2023-03-13T20:08:37.526Z,387.75
2023-03-13T20:11:03.909Z,365.17
2023-03-13T20:13:30.340Z,350.48
2023-03-13T20:15:56.681Z,345.52
2023-03-13T20:18:23.202Z,337.30
2023-03-13T20:20:49.951Z,314.80
2023-03-13T20:23:16.273Z,317.20
2023-03-13T20:25:43.281Z,308.75
2023-03-13T20:28:09.841Z,297.95
2023-03-13T20:30:36.202Z,291.92
2023-03-13T20:33:02.620Z,406.88
2023-03-13T20:35:29.597Z,466.90
2023-03-13T20:37:55.962Z,466.95
2023-03-13T20:40:22.824Z,457.08
2023-03-13T20:42:49.191Z,450.90
2023-03-13T20:45:15.577Z,461.25
2023-03-13T20:47:41.875Z,429.85
2023-03-13T20:50:08.298Z,404.63
2023-03-13T20:52:34.670Z,401.23
2023-03-13T20:55:01.470Z,379.75
2023-03-13T20:57:28.261Z,369.67
2023-03-13T20:59:54.640Z,345.33
2023-03-13T21:02:21.840Z,331.55
2023-03-13T21:04:48.858Z,327.38
2023-03-13T21:07:15.290Z,306.58
2023-03-13T21:09:41.885Z,298.02
2023-03-13T21:12:08.888Z,294.13
2023-03-13T21:14:35.270Z,279.77
2023-03-13T21:17:02.188Z,273.38
2023-03-13T21:19:28.713Z,437.45
2023-03-13T21:21:55.895Z,429.83
2023-03-13T21:24:22.260Z,420.02
2023-03-13T21:26:48.698Z,413.42
2023-03-13T21:29:15.209Z,391.38
2023-03-13T21:31:41.647Z,368.08
2023-03-13T21:34:08.022Z,363.70
2023-03-13T21:36:34.931Z,353.00
2023-03-13T21:39:01.347Z,334.27
2023-03-13T21:41:27.752Z,326.05
2023-03-13T21:43:54.145Z,306.92
2023-03-13T21:46:20.546Z,303.35
2023-03-13T21:48:47.282Z,294.08
2023-03-13T21:51:14.203Z,282.02
2023-03-13T21:53:40.992Z,275.52
2023-03-13T21:56:07.305Z,258.25
2023-03-13T21:58:33.731Z,252.35
2023-03-13T22:01:00.319Z,309.33
2023-03-13T22:03:26.973Z,385.77
2023-03-13T22:05:53.434Z,432.95
2023-03-13T22:08:19.766Z,409.80
2023-03-13T22:10:46.174Z,396.67
2023-03-13T22:13:12.630Z,480.38
2023-03-13T22:15:39.415Z,520.38
2023-03-13T22:18:05.735Z,488.90
2023-03-13T22:20:32.123Z,463.77
2023-03-13T22:22:59.022Z,446.73
2023-03-13T22:25:25.547Z,437.75
2023-03-13T22:27:52.396Z,427.98
2023-03-13T22:30:18.707Z,421.30
2023-03-13T22:32:45.269Z,407.90
2023-03-13T22:35:11.759Z,405.25
2023-03-13T22:37:38.808Z,447.05
2023-03-13T22:40:05.153Z,592.88
2023-03-13T22:42:31.535Z,525.25
2023-03-13T22:44:57.835Z,513.85
2023-03-13T22:47:24.159Z,494.98
2023-03-13T22:49:50.925Z,490.92
2023-03-13T22:52:17.287Z,587.75
2023-03-13T22:54:44.076Z,605.42
2023-03-13T22:57:10.423Z,572.92
2023-03-13T22:59:37.379Z,560.92
2023-03-13T23:02:03.792Z,553.95
2023-03-13T23:04:30.247Z,541.30
2023-03-13T23:06:57.041Z,536.22
2023-03-13T23:09:23.546Z,516.55
2023-03-13T23:11:49.888Z,517.35
2023-03-13T23:14:16.649Z,509.52
2023-03-13T23:16:43.156Z,498.00
2023-03-13T23:19:09.671Z,476.88
2023-03-13T23:21:36.227Z,471.80
2023-03-13T23:24:02.727Z,477.08
2023-03-13T23:26:29.655Z,470.80
2023-03-13T23:28:56.064Z,451.15
2023-03-13T23:31:23.116Z,448.08
2023-03-13T23:33:49.674Z,445.80
2023-03-13T23:36:16.428Z,431.27
2023-03-13T23:38:43.447Z,422.13
2023-03-13T23:41:09.797Z,415.90
2023-03-13T23:43:36.298Z,408.73
2023-03-13T23:46:02.682Z,403.80
2023-03-13T23:48:29.408Z,412.77
2023-03-13T23:50:56.206Z,396.67
2023-03-13T23:53:22.654Z,389.27
2023-03-13T23:55:49.298Z,385.95
2023-03-13T23:58:15.627Z,381.08
